createdAt,value
2017-08-09T00:02:17.046Z,13.20
2017-08-09T00:04:44.699Z,13.20
2017-08-09T00:07:12.288Z,13.10
2017-08-09T00:09:40.786Z,13.10
2017-08-09T00:12:08.362Z,13.10
2017-08-09T00:14:36.253Z,13.20
2017-08-09T00:17:03.837Z,13.30
2017-08-09T00:19:31.411Z,13.50
2017-08-09T00:21:59.832Z,13.60
2017-08-09T00:24:27.481Z,13.60
2017-08-09T00:26:55.078Z,13.60
2017-08-09T00:29:22.938Z,13.70
2017-08-09T00:31:50.924Z,13.70
2017-08-09T00:34:18.506Z,13.70
2017-08-09T00:36:46.864Z,13.70
2017-08-09T00:39:14.480Z,13.70
2017-08-09T00:41:42.079Z,13.70
2017-08-09T00:44:09.706Z,13.70
2017-08-09T00:46:37.283Z,13.60
2017-08-09T00:49:05.170Z,13.50
2017-08-09T00:51:32.785Z,13.50
2017-08-09T00:54:00.350Z,13.50
2017-08-09T00:56:27.937Z,13.50
2017-08-09T00:58:55.506Z,13.50
2017-08-09T01:01:23.121Z,13.50
2017-08-09T01:03:50.712Z,13.50
2017-08-09T01:06:18.670Z,13.50
2017-08-09T01:08:46.264Z,13.40
2017-08-09T01:11:14.610Z,13.30
2017-08-09T01:13:42.249Z,13.20
2017-08-09T01:16:09.909Z,13.20
2017-08-09T01:18:37.517Z,13.20
2017-08-09T01:21:05.475Z,13.20
2017-08-09T01:23:33.514Z,13.20
2017-08-09T01:26:01.098Z,13.00
2017-08-09T01:28:28.674Z,13.00
2017-08-09T01:30:56.267Z,12.90
2017-08-09T01:33:23.854Z,12.90
2017-08-09T01:35:51.442Z,12.80
2017-08-09T01:38:19.024Z,12.80
2017-08-09T01:40:47.667Z,12.80
2017-08-09T01:43:15.249Z,12.80
2017-08-09T01:45:42.836Z,12.80
2017-08-09T01:48:11.195Z,12.70
2017-08-09T01:50:38.767Z,12.70
2017-08-09T01:53:07.428Z,12.50
2017-08-09T01:55:35.232Z,12.50
2017-08-09T01:58:02.813Z,12.50
2017-08-09T02:00:30.481Z,12.50
2017-08-09T02:02:58.056Z,12.40
2017-08-09T02:05:25.651Z,12.50
2017-08-09T02:07:53.224Z,12.50
2017-08-09T02:10:21.872Z,12.70
2017-08-09T02:12:49.461Z,12.70
2017-08-09T02:15:17.045Z,12.70
2017-08-09T02:17:44.778Z,12.60
2017-08-09T02:20:12.368Z,12.50
2017-08-09T02:22:39.963Z,12.50
2017-08-09T02:25:07.543Z,12.50
2017-08-09T02:27:35.399Z,12.50
2017-08-09T02:30:03.339Z,12.50
2017-08-09T02:32:30.929Z,12.50
2017-08-09T02:34:58.540Z,12.50
2017-08-09T02:37:26.137Z,12.40
2017-08-09T02:39:54.507Z,12.40
2017-08-09T02:42:22.098Z,12.30
2017-08-09T02:44:50.432Z,12.30
2017-08-09T02:47:18.022Z,12.20
2017-08-09T02:49:45.674Z,12.20
2017-08-09T02:52:13.287Z,12.10
2017-08-09T02:54:40.871Z,12.00
2017-08-09T02:57:08.668Z,12.00
2017-08-09T02:59:36.297Z,12.00
2017-08-09T03:02:04.189Z,11.90
2017-08-09T03:04:31.771Z,11.90
2017-08-09T03:06:59.344Z,11.90
2017-08-09T03:09:27.148Z,11.90
2017-08-09T03:11:55.580Z,11.80
2017-08-09T03:14:23.211Z,11.80
2017-08-09T03:16:50.801Z,11.80
2017-08-09T03:19:19.466Z,11.80
2017-08-09T03:21:47.606Z,11.70
2017-08-09T03:24:15.193Z,11.80
2017-08-09T03:26:42.800Z,11.80
2017-08-09T03:29:10.379Z,11.80
2017-08-09T03:31:37.968Z,11.90
2017-08-09T03:34:05.546Z,11.80
2017-08-09T03:36:33.508Z,11.90
2017-08-09T03:39:01.049Z,11.90
2017-08-09T03:41:28.642Z,12.00
2017-08-09T03:43:56.239Z,12.00
2017-08-09T03:46:23.854Z,12.20
2017-08-09T03:48:51.452Z,12.20
2017-08-09T03:51:19.133Z,12.20
2017-08-09T03:53:47.131Z,12.20
2017-08-09T03:56:14.707Z,12.40
2017-08-09T03:58:42.270Z,12.40
2017-08-09T04:01:09.891Z,12.50
2017-08-09T04:03:37.483Z,12.50
2017-08-09T04:06:05.142Z,12.60
2017-08-09T04:08:32.723Z,12.70
2017-08-09T04:11:01.363Z,12.70
2017-08-09T04:13:28.973Z,12.70
2017-08-09T04:15:57.420Z,12.80
2017-08-09T04:18:25.014Z,12.80
2017-08-09T04:20:54.303Z,12.80
2017-08-09T04:23:22.679Z,12.80
2017-08-09T04:25:51.039Z,12.80
2017-08-09T04:28:19.008Z,12.80
2017-08-09T04:30:46.594Z,12.80
2017-08-09T04:33:14.189Z,12.80
2017-08-09T04:45:26.864Z,12.90
2017-08-09T04:47:54.735Z,13.20
2017-08-09T04:50:22.332Z,13.20
2017-08-09T04:52:49.916Z,13.30
2017-08-09T04:55:18.278Z,13.20
2017-08-09T04:57:45.887Z,13.10
2017-08-09T05:00:13.577Z,13.20
2017-08-09T05:02:41.616Z,13.20
2017-08-09T05:05:09.493Z,13.10
2017-08-09T05:07:37.082Z,13.10
2017-08-09T05:10:04.691Z,13.40
2017-08-09T05:12:32.283Z,13.50
2017-08-09T05:14:59.870Z,13.60
2017-08-09T05:17:27.474Z,13.60
2017-08-09T05:19:55.062Z,13.60
2017-08-09T05:22:23.034Z,13.80
2017-08-09T05:24:50.610Z,13.90
2017-08-09T05:27:18.200Z,14.10
2017-08-09T05:29:46.596Z,14.60
2017-08-09T05:32:14.214Z,14.60
2017-08-09T05:34:41.830Z,14.70
2017-08-09T05:37:09.432Z,14.70
2017-08-09T05:39:37.021Z,14.80
2017-08-09T05:42:04.610Z,15.10
2017-08-09T05:44:32.193Z,15.60
2017-08-09T05:47:00.169Z,16.20
2017-08-09T05:49:27.779Z,16.20
2017-08-09T05:51:55.364Z,16.30
2017-08-09T05:54:31.147Z,17.00
2017-08-09T05:56:58.776Z,17.40
2017-08-09T05:59:26.664Z,16.80
2017-08-09T06:01:54.276Z,16.20
2017-08-09T06:04:21.969Z,16.50
2017-08-09T06:06:49.561Z,16.90
2017-08-09T06:09:17.170Z,16.90
2017-08-09T06:11:44.784Z,16.30
2017-08-09T06:14:12.626Z,16.20
2017-08-09T06:16:40.210Z,16.50
2017-08-09T06:19:07.824Z,16.70
2017-08-09T06:21:35.400Z,17.30
2017-08-09T06:24:03.391Z,18.50
2017-08-09T06:26:30.967Z,19.30
2017-08-09T06:28:58.536Z,19.20
2017-08-09T06:31:26.131Z,18.60
2017-08-09T06:33:53.857Z,18.70
2017-08-09T06:36:21.458Z,20.10
2017-08-09T06:38:49.034Z,22.30
2017-08-09T06:41:17.003Z,24.10
2017-08-09T06:43:44.604Z,25.30
2017-08-09T06:46:12.227Z,26.30
2017-08-09T06:48:40.420Z,25.30
2017-08-09T06:51:08.002Z,24.20
2017-08-09T06:53:35.852Z,24.80
2017-08-09T06:56:03.447Z,26.10
2017-08-09T06:58:31.126Z,28.40
2017-08-09T07:00:58.706Z,29.70
2017-08-09T07:03:26.578Z,30.40
2017-08-09T07:05:54.158Z,31.00
2017-08-09T07:08:21.740Z,31.30
2017-08-09T07:10:50.113Z,32.10
2017-08-09T07:13:17.706Z,32.00
2017-08-09T07:15:45.612Z,32.60
2017-08-09T07:18:13.195Z,32.80
2017-08-09T07:20:41.542Z,33.70
2017-08-09T07:23:09.141Z,33.70
2017-08-09T07:25:37.447Z,34.10
2017-08-09T07:28:05.034Z,34.10
2017-08-09T07:30:32.624Z,33.10
2017-08-09T07:33:00.984Z,34.40
2017-08-09T07:35:28.559Z,34.30
2017-08-09T07:37:57.205Z,35.60
2017-08-09T07:40:24.773Z,35.60
2017-08-09T07:42:52.367Z,34.90
2017-08-09T07:45:20.723Z,35.70
2017-08-09T07:47:48.293Z,35.70
2017-08-09T07:50:15.922Z,34.90
2017-08-09T07:52:43.492Z,35.10
2017-08-09T07:55:11.094Z,34.90
2017-08-09T07:57:39.467Z,35.40
2017-08-09T08:00:07.937Z,35.50
2017-08-09T08:02:35.589Z,35.50
2017-08-09T08:05:03.531Z,36.50
2017-08-09T08:07:31.126Z,37.70
2017-08-09T08:09:59.519Z,34.90
2017-08-09T08:12:27.939Z,35.80
2017-08-09T08:14:55.524Z,35.80
2017-08-09T08:17:23.134Z,35.70
2017-08-09T08:19:50.721Z,34.30
2017-08-09T08:22:18.746Z,33.70
2017-08-09T08:24:47.161Z,32.00
2017-08-09T08:27:14.727Z,32.00
2017-08-09T08:29:42.323Z,32.90
2017-08-09T08:32:10.020Z,33.10
2017-08-09T08:34:37.627Z,35.70
2017-08-09T08:37:05.214Z,37.20
2017-08-09T08:39:33.280Z,37.20
2017-08-09T08:42:00.849Z,37.60
2017-08-09T08:44:28.413Z,37.90
2017-08-09T08:46:56.805Z,39.20
2017-08-09T08:49:24.419Z,39.10
2017-08-09T08:51:52.060Z,39.40
2017-08-09T08:54:19.668Z,40.10
2017-08-09T08:56:48.053Z,39.40
2017-08-09T08:59:15.642Z,39.40
2017-08-09T09:01:43.350Z,37.70
2017-08-09T09:04:10.939Z,36.40
2017-08-09T09:06:38.884Z,33.80
2017-08-09T09:09:06.477Z,31.00
2017-08-09T09:11:34.719Z,30.20
2017-08-09T09:14:02.323Z,29.50
2017-08-09T09:16:29.921Z,29.90
2017-08-09T09:18:57.888Z,29.60
2017-08-09T09:21:25.570Z,28.60
2017-08-09T09:23:53.159Z,29.20
2017-08-09T09:26:20.755Z,31.30
2017-08-09T09:28:48.344Z,34.00
2017-08-09T09:31:15.962Z,33.40
2017-08-09T09:33:43.593Z,30.80
2017-08-09T09:36:12.340Z,32.70
2017-08-09T09:38:39.897Z,32.70
2017-08-09T09:41:07.483Z,31.90
2017-08-09T09:43:35.164Z,30.50
2017-08-09T09:46:02.741Z,29.30
2017-08-09T09:48:30.513Z,29.10
2017-08-09T09:50:58.152Z,28.80
2017-08-09T09:53:25.758Z,28.30
2017-08-09T09:55:53.424Z,28.20
2017-08-09T09:58:21.030Z,30.10
2017-08-09T10:00:48.607Z,32.90
2017-08-09T10:03:16.510Z,34.40
2017-08-09T10:05:44.118Z,33.90
2017-08-09T10:08:11.728Z,31.70
2017-08-09T10:10:39.375Z,30.80
2017-08-09T10:13:06.971Z,29.20
2017-08-09T10:15:34.863Z,29.00
2017-08-09T10:18:02.477Z,31.00
2017-08-09T10:20:30.100Z,33.30
2017-08-09T10:22:57.722Z,35.10
2017-08-09T10:25:25.301Z,37.10
2017-08-09T10:27:53.834Z,36.50
2017-08-09T10:30:21.477Z,36.50
2017-08-09T10:32:49.491Z,38.00
2017-08-09T10:35:17.074Z,36.50
2017-08-09T10:37:44.695Z,35.60
2017-08-09T10:40:12.392Z,35.40
2017-08-09T10:42:40.814Z,37.90
2017-08-09T10:45:08.466Z,37.90
2017-08-09T10:47:36.054Z,37.40
2017-08-09T10:50:03.668Z,38.60
2017-08-09T10:52:31.263Z,38.00
2017-08-09T10:54:59.133Z,37.80
2017-08-09T10:57:26.715Z,36.70
2017-08-09T10:59:54.351Z,37.10
2017-08-09T11:02:22.060Z,38.40
2017-08-09T11:04:49.651Z,36.20
2017-08-09T11:07:17.270Z,35.60
2017-08-09T11:09:44.859Z,35.80
2017-08-09T11:12:12.793Z,33.80
2017-08-09T11:14:41.148Z,32.80
2017-08-09T11:17:08.737Z,32.80
2017-08-09T11:19:37.197Z,34.30
2017-08-09T11:22:04.795Z,34.30
2017-08-09T11:24:32.663Z,33.70
2017-08-09T11:27:00.239Z,34.20
2017-08-09T11:29:27.881Z,34.70
2017-08-09T11:31:55.920Z,36.20
2017-08-09T11:34:23.510Z,36.70
2017-08-09T11:36:51.133Z,36.10
2017-08-09T11:39:18.813Z,34.90
2017-08-09T11:41:47.164Z,37.50
2017-08-09T11:44:15.255Z,37.50
2017-08-09T11:46:42.845Z,36.80
2017-08-09T11:49:10.452Z,36.30
2017-08-09T11:51:38.536Z,35.80
2017-08-09T11:54:06.160Z,35.10
2017-08-09T11:56:33.739Z,35.80
2017-08-09T11:59:01.359Z,36.60
2017-08-09T12:01:28.926Z,37.20
2017-08-09T12:03:57.052Z,37.90
2017-08-09T12:06:24.635Z,36.40
2017-08-09T12:08:52.993Z,32.80
2017-08-09T12:11:21.055Z,32.70
2017-08-09T12:13:48.646Z,32.70
2017-08-09T12:16:17.012Z,33.90
2017-08-09T12:18:45.393Z,35.20
2017-08-09T12:21:13.752Z,34.80
2017-08-09T12:23:41.598Z,34.90
2017-08-09T12:26:09.171Z,36.20
2017-08-09T12:28:36.752Z,36.70
2017-08-09T12:31:05.425Z,35.40
2017-08-09T12:33:33.002Z,35.40
2017-08-09T12:36:01.341Z,34.50
2017-08-09T12:38:28.911Z,34.50
2017-08-09T12:40:57.761Z,32.90
2017-08-09T12:43:25.324Z,32.90
2017-08-09T12:45:52.915Z,32.90
2017-08-09T12:48:20.507Z,33.60
2017-08-09T12:50:48.099Z,32.60
2017-08-09T12:53:16.094Z,32.30
2017-08-09T12:55:43.672Z,32.60
2017-08-09T12:58:11.261Z,31.90
2017-08-09T13:00:40.004Z,31.10
2017-08-09T13:03:07.602Z,31.10
2017-08-09T13:05:35.200Z,31.30
2017-08-09T13:08:03.662Z,31.70
2017-08-09T13:10:32.285Z,32.30
2017-08-09T13:13:02.510Z,32.50
2017-08-09T13:15:30.084Z,32.50
2017-08-09T13:17:57.939Z,31.00
2017-08-09T13:20:25.545Z,29.90
2017-08-09T13:22:53.904Z,28.80
2017-08-09T13:25:21.640Z,28.70
2017-08-09T13:27:49.217Z,29.50
2017-08-09T13:30:17.179Z,29.60
2017-08-09T13:32:44.760Z,30.20
2017-08-09T13:35:12.320Z,30.30
2017-08-09T13:37:41.524Z,29.70
2017-08-09T13:40:09.875Z,29.60
2017-08-09T13:42:37.962Z,29.50
2017-08-09T13:45:05.556Z,29.30
2017-08-09T13:47:33.152Z,29.30
2017-08-09T13:50:00.758Z,29.10
2017-08-09T13:52:29.104Z,29.10
2017-08-09T13:54:57.006Z,29.10
2017-08-09T13:57:24.612Z,28.00
2017-08-09T13:59:54.918Z,27.90
2017-08-09T14:02:22.594Z,27.90
2017-08-09T14:04:50.180Z,28.00
2017-08-09T14:07:17.807Z,27.90
2017-08-09T14:09:45.844Z,27.30
2017-08-09T14:12:13.740Z,27.10
2017-08-09T14:14:41.309Z,27.50
2017-08-09T14:17:08.976Z,27.70
2017-08-09T14:19:36.593Z,27.80
2017-08-09T14:22:04.179Z,27.60
2017-08-09T14:24:31.760Z,26.50
2017-08-09T14:26:59.377Z,26.50
2017-08-09T14:29:27.305Z,26.30
2017-08-09T14:31:54.887Z,26.10
2017-08-09T14:34:23.237Z,26.00
2017-08-09T14:36:50.880Z,25.90
2017-08-09T14:39:18.486Z,26.50
2017-08-09T14:41:46.142Z,26.60
2017-08-09T14:44:14.479Z,26.10
2017-08-09T14:46:42.385Z,26.00
2017-08-09T14:49:10.762Z,25.40
2017-08-09T14:51:38.351Z,25.40
2017-08-09T14:54:06.084Z,25.40
2017-08-09T14:56:34.436Z,25.50
2017-08-09T14:59:02.390Z,25.40
2017-08-09T15:01:30.760Z,25.80
2017-08-09T15:03:58.343Z,26.00
2017-08-09T15:06:25.945Z,26.00
2017-08-09T15:08:53.791Z,25.80
2017-08-09T15:11:22.130Z,25.70
2017-08-09T15:13:49.704Z,25.70
2017-08-09T15:16:17.368Z,25.80
2017-08-09T15:18:45.002Z,26.00
2017-08-09T15:21:12.863Z,25.90
2017-08-09T15:23:40.506Z,26.10
2017-08-09T15:26:08.138Z,26.00
2017-08-09T15:28:35.875Z,25.70
2017-08-09T15:31:03.515Z,25.20
2017-08-09T15:33:31.133Z,25.20
2017-08-09T15:35:58.806Z,25.00
2017-08-09T15:38:26.408Z,25.20
2017-08-09T15:40:54.061Z,25.30
2017-08-09T15:43:21.735Z,25.10
2017-08-09T15:45:49.335Z,25.10
2017-08-09T15:48:17.718Z,25.10
2017-08-09T15:50:46.075Z,24.70
2017-08-09T15:53:13.712Z,24.60
2017-08-09T15:55:41.325Z,24.60
2017-08-09T15:58:08.947Z,24.50
2017-08-09T16:00:36.542Z,24.60
2017-08-09T16:03:04.945Z,24.70
2017-08-09T16:05:32.519Z,24.70
2017-08-09T16:08:00.390Z,24.70
2017-08-09T16:10:27.983Z,24.60
2017-08-09T16:12:55.606Z,24.50
2017-08-09T16:15:23.230Z,24.50
2017-08-09T16:17:50.811Z,24.70
2017-08-09T16:20:18.423Z,24.60
2017-08-09T16:22:46.827Z,24.80
2017-08-09T16:25:14.442Z,24.80
2017-08-09T16:27:42.053Z,24.70
2017-08-09T16:30:09.723Z,24.60
2017-08-09T16:32:37.328Z,24.60
2017-08-09T16:35:04.984Z,24.20
2017-08-09T16:37:32.560Z,24.10
2017-08-09T16:40:00.170Z,24.20
2017-08-09T16:42:27.837Z,24.10
2017-08-09T16:44:56.390Z,24.00
2017-08-09T16:47:24.015Z,24.00
2017-08-09T16:49:51.883Z,23.90
2017-08-09T16:52:19.479Z,23.90
2017-08-09T16:54:47.836Z,23.90
2017-08-09T16:57:15.457Z,23.80
2017-08-09T16:59:43.054Z,23.80
2017-08-09T17:02:10.713Z,23.70
2017-08-09T17:04:38.305Z,23.30
2017-08-09T17:07:05.895Z,23.30
2017-08-09T17:09:33.551Z,23.20
2017-08-09T17:12:01.422Z,23.10
2017-08-09T17:14:29.011Z,23.30
2017-08-09T17:16:56.601Z,23.30
2017-08-09T17:19:24.977Z,23.00
2017-08-09T17:21:52.663Z,23.00
2017-08-09T17:24:20.349Z,22.90
2017-08-09T17:26:47.911Z,22.80
2017-08-09T17:29:15.762Z,22.70
2017-08-09T17:31:43.344Z,22.70
2017-08-09T17:34:10.914Z,22.70
2017-08-09T17:36:38.520Z,22.80
2017-08-09T17:39:06.112Z,22.80
2017-08-09T17:41:33.744Z,23.00
2017-08-09T17:44:01.333Z,23.00
2017-08-09T17:46:29.214Z,22.90
2017-08-09T17:48:56.803Z,22.90
2017-08-09T17:51:25.148Z,23.00
2017-08-09T17:53:52.760Z,23.00
2017-08-09T17:56:20.371Z,23.10
2017-08-09T17:58:48.012Z,23.10
2017-08-09T18:01:15.631Z,22.90
2017-08-09T18:03:43.986Z,22.90
2017-08-09T18:06:11.576Z,22.90
2017-08-09T18:08:42.211Z,22.80
2017-08-09T18:11:09.854Z,22.80
2017-08-09T18:13:37.443Z,22.80
2017-08-09T18:16:05.072Z,22.70
2017-08-09T18:18:33.412Z,22.70
2017-08-09T18:21:01.047Z,22.70
2017-08-09T18:23:28.642Z,22.60
2017-08-09T18:25:56.603Z,22.50
2017-08-09T18:28:24.239Z,22.40
2017-08-09T18:30:51.818Z,22.40
2017-08-09T18:33:19.412Z,22.20
2017-08-09T18:35:46.985Z,22.00
2017-08-09T18:38:14.588Z,21.80
2017-08-09T18:40:42.168Z,21.60
2017-08-09T18:43:10.139Z,21.40
2017-08-09T18:45:37.723Z,21.30
2017-08-09T18:48:06.086Z,21.10
2017-08-09T18:50:33.696Z,21.00
2017-08-09T18:53:01.277Z,21.00
2017-08-09T18:55:28.909Z,20.90
2017-08-09T18:57:56.486Z,20.90
2017-08-09T19:00:24.397Z,21.00
2017-08-09T19:02:51.951Z,21.10
2017-08-09T19:05:19.535Z,20.80
2017-08-09T19:07:47.253Z,20.60
2017-08-09T19:10:21.329Z,20.50
2017-08-09T19:12:49.201Z,20.40
2017-08-09T19:15:16.964Z,20.30
2017-08-09T19:17:45.079Z,19.80
2017-08-09T19:20:12.760Z,19.00
2017-08-09T19:22:40.419Z,18.20
2017-08-09T19:25:08.910Z,17.60
2017-08-09T19:27:36.532Z,17.50
2017-08-09T19:30:04.145Z,17.40
2017-08-09T19:32:31.740Z,17.30
2017-08-09T19:34:59.782Z,17.20
2017-08-09T19:37:27.451Z,17.20
2017-08-09T19:39:59.520Z,17.10
2017-08-09T19:42:27.764Z,17.10
2017-08-09T19:44:55.367Z,17.20
2017-08-09T19:47:23.000Z,17.10
2017-08-09T19:49:50.599Z,17.10
2017-08-09T19:52:18.587Z,17.10
2017-08-09T19:54:46.175Z,17.10
2017-08-09T19:57:14.537Z,17.30
2017-08-09T19:59:42.152Z,17.30
2017-08-09T20:02:09.834Z,17.30
2017-08-09T20:04:37.832Z,17.20
2017-08-09T20:07:05.432Z,17.20
2017-08-09T20:09:33.012Z,17.10
2017-08-09T20:12:00.607Z,17.30
2017-08-09T20:14:28.244Z,17.20
2017-08-09T20:16:55.934Z,17.00
2017-08-09T20:19:23.535Z,17.10
2017-08-09T20:21:51.452Z,17.00
2017-08-09T20:24:19.089Z,17.00
2017-08-09T20:26:46.664Z,16.90
2017-08-09T20:29:14.268Z,16.80
2017-08-09T20:31:41.842Z,16.80
2017-08-09T20:34:09.469Z,16.80
2017-08-09T20:36:37.835Z,16.70
2017-08-09T20:39:05.690Z,16.70
2017-08-09T20:41:33.305Z,16.90
2017-08-09T20:44:00.891Z,16.80
2017-08-09T20:46:28.516Z,16.80
2017-08-09T20:48:56.142Z,16.70
2017-08-09T20:51:23.739Z,16.60
2017-08-09T20:53:51.349Z,16.60
2017-08-09T20:56:19.318Z,16.60
2017-08-09T20:58:47.792Z,16.60
2017-08-09T21:01:15.430Z,16.60
2017-08-09T21:03:43.031Z,16.60
2017-08-09T21:06:10.604Z,16.70
2017-08-09T21:08:39.005Z,16.70
2017-08-09T21:11:06.545Z,16.70
2017-08-09T21:13:35.302Z,16.70
2017-08-09T21:16:02.912Z,16.60
2017-08-09T21:18:30.507Z,16.60
2017-08-09T21:20:58.120Z,16.60
2017-08-09T21:23:25.713Z,16.60
2017-08-09T21:25:53.333Z,16.60
2017-08-09T21:28:21.751Z,16.60
2017-08-09T21:30:49.672Z,16.60
2017-08-09T21:33:17.483Z,16.60
2017-08-09T21:35:45.047Z,16.60
2017-08-09T21:38:12.662Z,16.60
2017-08-09T21:40:41.022Z,16.70
2017-08-09T21:43:08.659Z,16.60
2017-08-09T21:45:36.236Z,16.70
2017-08-09T21:48:04.204Z,16.70
2017-08-09T21:50:31.798Z,16.80
2017-08-09T21:53:00.139Z,17.00
2017-08-09T21:55:27.752Z,16.90
2017-08-09T21:57:55.423Z,16.90
2017-08-09T22:00:23.034Z,16.80
2017-08-09T22:02:50.624Z,16.80
2017-08-09T22:05:18.450Z,16.80
2017-08-09T22:07:46.035Z,16.80
2017-08-09T22:10:14.408Z,16.80
2017-08-09T22:12:42.797Z,16.80
2017-08-09T22:15:10.355Z,16.80
2017-08-09T22:17:37.958Z,16.90
2017-08-09T22:20:05.570Z,16.90
2017-08-09T22:22:33.416Z,16.90
2017-08-09T22:25:00.985Z,16.90
2017-08-09T22:27:28.588Z,16.90
2017-08-09T22:29:56.196Z,16.90
2017-08-09T22:32:23.798Z,16.90
2017-08-09T22:34:51.444Z,16.90
2017-08-09T22:37:19.781Z,16.90
2017-08-09T22:39:47.850Z,16.90
2017-08-09T22:42:15.452Z,17.00
2017-08-09T22:44:43.815Z,17.10
2017-08-09T22:47:12.300Z,17.00
2017-08-09T22:49:40.657Z,17.10
2017-08-09T22:52:08.249Z,17.00
2017-08-09T22:54:36.648Z,17.10
2017-08-09T22:57:04.560Z,17.10
2017-08-09T22:59:32.156Z,17.00
2017-08-09T23:02:00.527Z,16.90
2017-08-09T23:04:29.029Z,17.00
2017-08-09T23:06:56.641Z,17.00
2017-08-09T23:09:24.268Z,17.00
2017-08-09T23:11:51.850Z,17.00
2017-08-09T23:14:19.809Z,17.10
2017-08-09T23:16:47.408Z,17.10
2017-08-09T23:19:15.807Z,17.10
2017-08-09T23:21:43.423Z,17.00
2017-08-09T23:24:11.048Z,17.10
2017-08-09T23:26:38.659Z,17.10
2017-08-09T23:29:06.249Z,17.00
2017-08-09T23:31:34.199Z,17.00
2017-08-09T23:34:02.581Z,16.80
2017-08-09T23:36:30.173Z,16.80
2017-08-09T23:38:57.788Z,16.80
2017-08-09T23:41:25.416Z,16.90
2017-08-09T23:43:53.031Z,16.80
2017-08-09T23:46:20.629Z,16.90
2017-08-09T23:48:48.729Z,16.90
2017-08-09T23:51:16.323Z,16.90
2017-08-09T23:53:44.707Z,16.90
2017-08-09T23:56:12.332Z,16.90
2017-08-09T23:58:39.933Z,16.90
